createdAt,value
2023-03-21T08:28:08.738Z,29.70
2023-03-21T08:38:14.474Z,29.60
2023-03-21T08:40:42.154Z,29.88
2023-03-21T08:43:09.383Z,29.98
2023-03-21T08:45:36.756Z,30.10
2023-03-21T08:48:04.186Z,30.30
2023-03-21T08:50:32.056Z,30.45
2023-03-21T08:52:59.211Z,30.61
2023-03-21T08:55:26.351Z,30.69
2023-03-21T08:57:53.338Z,30.89
2023-03-21T09:00:21.988Z,30.86
2023-03-21T09:02:52.028Z,30.91
2023-03-21T09:05:19.792Z,30.86
2023-03-21T09:07:47.149Z,30.98
2023-03-21T09:10:22.125Z,31.00
2023-03-21T09:12:51.593Z,31.10
2023-03-21T09:15:22.285Z,31.19
2023-03-21T09:17:53.217Z,31.34
2023-03-21T09:20:26.523Z,31.56
2023-03-21T09:22:54.019Z,31.73
2023-03-21T09:25:21.711Z,31.89
2023-03-21T09:27:49.027Z,32.03
2023-03-21T09:30:19.078Z,32.15
2023-03-21T09:32:48.780Z,32.35
2023-03-21T09:35:20.565Z,32.49
2023-03-21T09:37:49.242Z,32.91
2023-03-21T09:40:18.976Z,33.20
2023-03-21T09:43:16.939Z,33.27
2023-03-21T09:45:58.286Z,33.67
2023-03-21T09:48:57.305Z,33.91
2023-03-21T09:51:29.117Z,33.86
2023-03-21T09:53:59.190Z,33.70
2023-03-21T09:56:26.354Z,33.49
2023-03-21T09:59:01.857Z,34.38
2023-03-21T10:01:33.237Z,35.13
2023-03-21T10:04:06.892Z,36.12
2023-03-21T10:06:40.751Z,36.43
2023-03-21T10:09:15.674Z,36.79
2023-03-21T10:11:59.690Z,36.81
2023-03-21T10:14:33.655Z,36.75
2023-03-21T10:17:33.648Z,36.65
2023-03-21T10:20:21.727Z,37.46
2023-03-21T10:23:02.959Z,37.77
2023-03-21T10:25:37.772Z,38.28
2023-03-21T10:28:07.745Z,38.14
2023-03-21T10:30:42.658Z,37.88
2023-03-21T10:33:16.289Z,37.50
2023-03-21T10:35:47.233Z,37.31
2023-03-21T10:38:18.336Z,37.22
2023-03-21T10:40:45.929Z,37.43
2023-03-21T10:43:28.341Z,37.24
2023-03-21T10:45:56.430Z,36.88
2023-03-21T10:48:24.802Z,36.92
2023-03-21T10:50:55.583Z,37.14
2023-03-21T10:53:29.188Z,38.00
2023-03-21T10:55:59.955Z,38.84
2023-03-21T10:58:35.957Z,39.72
2023-03-21T11:01:07.171Z,40.21
2023-03-21T11:03:38.773Z,40.58
2023-03-21T11:06:07.327Z,41.60
2023-03-21T11:09:04.962Z,42.08
2023-03-21T11:11:39.188Z,41.98
2023-03-21T11:14:25.155Z,42.35
2023-03-21T11:16:52.392Z,42.90
2023-03-21T11:19:27.771Z,42.96
2023-03-21T11:21:58.409Z,42.83
2023-03-21T11:24:31.036Z,42.73
2023-03-21T11:26:59.607Z,42.91
2023-03-21T11:29:31.706Z,42.63
2023-03-21T11:32:02.507Z,42.07
2023-03-21T11:34:38.863Z,41.56
2023-03-21T11:37:07.264Z,41.53
2023-03-21T11:39:41.555Z,42.11
2023-03-21T11:42:30.859Z,42.56
2023-03-21T11:45:02.937Z,42.68
2023-03-21T11:47:30.255Z,42.99
2023-03-21T11:50:04.681Z,43.15
2023-03-21T11:52:50.890Z,43.56
2023-03-21T11:56:28.412Z,44.01
2023-03-21T11:59:16.477Z,44.34
2023-03-21T12:01:57.488Z,44.34
2023-03-21T12:04:39.830Z,44.51
2023-03-21T12:07:39.208Z,43.99
2023-03-21T12:10:21.415Z,43.82
2023-03-21T12:13:12.808Z,43.77
2023-03-21T12:16:13.891Z,44.29
2023-03-21T12:18:40.935Z,44.69
2023-03-21T12:21:16.331Z,44.98
2023-03-21T12:24:00.565Z,44.89
2023-03-21T12:26:32.032Z,44.70
2023-03-21T12:29:19.778Z,44.61
2023-03-21T12:31:56.403Z,44.33
2023-03-21T12:34:29.245Z,43.85
2023-03-21T12:37:20.463Z,43.28
2023-03-21T12:39:51.471Z,42.63
2023-03-21T12:42:42.730Z,42.17
2023-03-21T12:45:24.712Z,41.56
2023-03-21T12:51:33.108Z,40.48
2023-03-21T12:54:09.329Z,40.12
2023-03-21T12:56:58.360Z,39.97
2023-03-21T12:59:59.386Z,39.83
2023-03-21T13:02:41.067Z,39.63
2023-03-21T13:05:21.029Z,39.54
2023-03-21T13:07:54.459Z,39.53
2023-03-21T13:10:22.963Z,39.68
2023-03-21T13:13:14.106Z,39.66
2023-03-21T13:16:17.426Z,39.76
2023-03-21T13:19:07.948Z,39.73
2023-03-21T13:22:02.726Z,39.65
2023-03-21T13:24:34.327Z,39.63
2023-03-21T13:27:27.852Z,39.71
2023-03-21T13:30:01.345Z,39.63
2023-03-21T13:32:41.145Z,39.64
2023-03-21T13:35:33.204Z,39.56
2023-03-21T13:38:03.753Z,39.29
2023-03-21T13:40:50.740Z,39.13
2023-03-21T13:43:51.999Z,39.28
2023-03-21T13:46:34.122Z,39.35
2023-03-21T13:49:10.912Z,39.22
2023-03-21T13:51:43.838Z,39.14
2023-03-21T13:54:19.384Z,39.07
2023-03-21T13:56:46.866Z,38.86
2023-03-21T13:59:39.463Z,38.86
2023-03-21T14:02:13.130Z,38.92
2023-03-21T14:04:53.934Z,38.73
2023-03-21T14:07:33.130Z,38.80
2023-03-21T14:10:06.163Z,38.73
2023-03-21T14:12:43.002Z,38.71
2023-03-21T14:15:23.376Z,38.42
2023-03-21T14:18:15.825Z,38.35
2023-03-21T14:20:58.894Z,38.18
2023-03-21T14:23:26.017Z,38.08
2023-03-21T14:25:53.512Z,38.13
2023-03-21T14:28:24.321Z,38.42
2023-03-21T14:31:01.714Z,38.63
2023-03-21T14:33:36.884Z,38.68
2023-03-21T14:36:14.093Z,38.67
2023-03-21T14:38:41.872Z,38.53
2023-03-21T14:41:29.626Z,38.21
2023-03-21T14:44:17.692Z,38.00
2023-03-21T14:46:45.386Z,37.85
2023-03-21T14:49:21.153Z,37.86
2023-03-21T14:51:51.042Z,37.81
2023-03-21T14:54:19.832Z,37.69
2023-03-21T14:56:51.047Z,37.59
2023-03-21T14:59:22.766Z,37.48
2023-03-21T15:01:52.575Z,37.53
2023-03-21T15:04:21.678Z,37.34
2023-03-21T15:06:57.637Z,37.15
2023-03-21T15:09:27.660Z,36.90
2023-03-21T15:12:09.649Z,36.80
2023-03-21T15:14:38.316Z,36.68
2023-03-21T15:17:07.845Z,36.59
2023-03-21T15:19:38.566Z,36.57
2023-03-21T15:22:16.662Z,36.27
2023-03-21T15:24:53.539Z,35.99
2023-03-21T15:27:26.847Z,36.09
2023-03-21T15:29:54.510Z,36.11
2023-03-21T15:32:31.127Z,36.09
2023-03-21T15:35:24.060Z,36.09
2023-03-21T15:37:57.396Z,36.01
2023-03-21T15:40:33.437Z,35.88
2023-03-21T15:43:18.406Z,35.75
2023-03-21T15:45:56.510Z,35.64
2023-03-21T15:48:29.019Z,35.44
2023-03-21T15:50:56.310Z,35.54
2023-03-21T15:53:24.466Z,35.41
2023-03-21T15:55:57.260Z,35.26
2023-03-21T15:58:27.225Z,34.96
2023-03-21T16:00:57.329Z,34.77
2023-03-21T16:03:27.780Z,34.54
2023-03-21T16:06:14.547Z,34.31
2023-03-21T16:09:04.994Z,34.23
2023-03-21T16:11:49.934Z,34.12
2023-03-21T16:14:18.938Z,34.15
2023-03-21T16:16:46.808Z,34.12
2023-03-21T16:19:14.775Z,34.21
2023-03-21T16:21:42.455Z,34.12
2023-03-21T16:24:11.744Z,34.14
2023-03-21T16:26:46.076Z,34.19
2023-03-21T16:29:14.938Z,34.08
2023-03-21T16:31:42.383Z,34.05
2023-03-21T16:34:11.054Z,33.93
2023-03-21T16:36:40.605Z,33.90
2023-03-21T16:39:26.599Z,33.80
2023-03-21T16:42:47.670Z,33.62
2023-03-21T16:44:48.549Z,33.59
2023-03-21T16:47:21.189Z,33.53
2023-03-21T16:49:48.355Z,33.43
2023-03-21T16:52:16.002Z,33.36
2023-03-21T16:54:43.554Z,33.30
2023-03-21T16:57:30.954Z,33.22
2023-03-21T16:59:58.074Z,33.03
2023-03-21T17:02:26.941Z,33.03
2023-03-21T17:04:53.965Z,32.91
2023-03-21T17:07:21.069Z,32.73
2023-03-21T17:09:48.365Z,32.70
2023-03-21T17:12:16.765Z,32.72
2023-03-21T17:14:45.404Z,32.62
2023-03-21T17:17:14.103Z,32.62
2023-03-21T17:19:41.711Z,32.49
2023-03-21T17:22:10.890Z,32.38
2023-03-21T17:24:41.670Z,32.37
2023-03-21T17:27:12.019Z,32.34
2023-03-21T17:29:39.043Z,32.20
2023-03-21T17:32:06.139Z,32.22
2023-03-21T17:34:33.167Z,32.18
2023-03-21T17:37:00.419Z,32.03
2023-03-21T17:39:28.919Z,32.05
2023-03-21T17:41:57.243Z,31.93
2023-03-21T17:44:24.262Z,31.84
2023-03-21T17:46:52.220Z,31.86
2023-03-21T17:49:20.258Z,31.70
2023-03-21T17:51:47.291Z,31.68
2023-03-21T17:54:14.840Z,31.60
2023-03-21T17:56:42.331Z,31.60
2023-03-21T17:59:15.085Z,31.49
2023-03-21T18:01:43.206Z,31.45
2023-03-21T18:04:11.276Z,31.43
2023-03-21T18:06:38.541Z,31.38
2023-03-21T18:09:12.131Z,31.38
2023-03-21T18:11:40.504Z,31.26
2023-03-21T18:14:16.208Z,31.32
2023-03-21T18:16:50.870Z,31.26
2023-03-21T18:19:21.479Z,31.21
2023-03-21T18:21:48.853Z,31.20
2023-03-21T18:24:16.153Z,31.21
2023-03-21T18:26:44.097Z,31.19
2023-03-21T18:30:17.834Z,31.20
2023-03-21T18:32:07.379Z,31.20
2023-03-21T18:34:37.158Z,31.17
2023-03-21T18:37:07.615Z,31.08
2023-03-21T18:39:35.021Z,31.12
2023-03-21T18:42:03.780Z,31.01
2023-03-21T18:44:40.756Z,31.01
2023-03-21T18:47:08.735Z,31.06
2023-03-21T18:50:05.971Z,31.03
2023-03-21T18:52:23.025Z,31.00
2023-03-21T18:54:50.380Z,30.96
2023-03-21T18:57:35.696Z,30.88
2023-03-21T19:00:17.599Z,30.89
2023-03-21T19:02:49.095Z,30.87
2023-03-21T19:05:20.294Z,30.86
2023-03-21T19:07:48.233Z,30.84
2023-03-21T19:10:19.959Z,30.74
2023-03-21T19:12:52.698Z,30.75
2023-03-21T19:15:21.997Z,30.77
2023-03-21T19:20:45.272Z,30.72
2023-03-21T19:23:12.716Z,30.72
2023-03-21T19:25:39.948Z,30.68
2023-03-21T19:28:07.059Z,30.69
2023-03-21T19:30:35.029Z,30.67
2023-03-21T19:33:02.233Z,30.63
2023-03-21T19:35:29.276Z,30.51
2023-03-21T19:37:56.303Z,30.58
2023-03-21T19:40:24.180Z,30.53
2023-03-21T19:42:51.518Z,30.39
2023-03-21T19:45:18.580Z,30.45
2023-03-21T19:47:46.503Z,30.41
2023-03-21T19:53:00.770Z,30.31
2023-03-21T19:55:27.798Z,30.18
2023-03-21T19:57:55.105Z,30.22
2023-03-21T20:00:22.656Z,30.16
2023-03-21T20:02:49.825Z,30.12
2023-03-21T20:05:20.726Z,30.14
2023-03-21T20:07:48.018Z,30.08
2023-03-21T20:10:15.082Z,29.96
2023-03-21T20:12:42.064Z,30.03
2023-03-21T20:15:17.636Z,29.94
2023-03-21T20:17:48.395Z,29.89
2023-03-21T20:20:18.364Z,29.91
2023-03-21T20:25:39.231Z,29.77
2023-03-21T20:28:15.820Z,29.81
2023-03-21T20:30:53.387Z,29.80
2023-03-21T20:33:20.793Z,29.78
2023-03-21T20:38:37.369Z,29.70
2023-03-21T20:41:06.437Z,29.63
2023-03-21T20:44:28.213Z,29.62
2023-03-21T20:46:21.101Z,29.64
2023-03-21T20:48:49.894Z,29.55
2023-03-21T20:52:29.431Z,29.53
2023-03-21T20:54:05.889Z,29.61
2023-03-21T20:56:33.428Z,29.57
2023-03-21T20:59:15.002Z,29.43
